Terminal Aerodrome Forecast
Issued by NWS

Home | Current Version | Previous Version | Text Only | Print | Product List | Glossary On
Versions: 1 2 3 4 5 6 7 8 9 10 11 12 13 14 15 16
283
FTUS43 KUNR 231123
TAFGCC
TAF
KGCC 231123Z 2312/2412 VRB05KT P6SM OVC025
     FM231600 20015G22KT P6SM SCT150
     FM240000 16015G25KT 3SM TSRA BKN050CB
     FM240200 18015KT P6SM SCT050=

USA.gov is the U.S. government's official web portal to all federal, state and local government web resources and services.